sensor_id;sensor_type;location;lat;lon;timestamp;P1;durP1;ratioP1;P2;durP2;ratioP2
44328;SDS011;30039;51.462;6.892;2023-12-04T00:01:52;15.30;;;8.02;;
44328;SDS011;30039;51.462;6.892;2023-12-04T00:04:38;11.88;;;5.72;;
44328;SDS011;30039;51.462;6.892;2023-12-04T00:07:23;18.33;;;7.47;;
44328;SDS011;30039;51.462;6.892;2023-12-04T00:10:09;14.55;;;6.40;;
44328;SDS011;30039;51.462;6.892;2023-12-04T00:12:55;14.88;;;7.28;;
44328;SDS011;30039;51.462;6.892;2023-12-04T00:15:40;13.80;;;7.13;;
44328;SDS011;30039;51.462;6.892;2023-12-04T00:18:26;15.68;;;7.07;;
44328;SDS011;30039;51.462;6.892;2023-12-04T00:21:12;16.13;;;6.97;;
44328;SDS011;30039;51.462;6.892;2023-12-04T00:23:58;14.02;;;7.20;;
44328;SDS011;30039;51.462;6.892;2023-12-04T00:26:43;15.02;;;7.72;;
44328;SDS011;30039;51.462;6.892;2023-12-04T00:29:29;13.35;;;6.50;;
44328;SDS011;30039;51.462;6.892;2023-12-04T00:32:14;13.45;;;6.75;;
44328;SDS011;30039;51.462;6.892;2023-12-04T00:35:00;12.10;;;6.55;;
44328;SDS011;30039;51.462;6.892;2023-12-04T00:37:45;14.02;;;6.88;;
44328;SDS011;30039;51.462;6.892;2023-12-04T00:40:31;13.75;;;6.35;;
44328;SDS011;30039;51.462;6.892;2023-12-04T00:43:17;12.13;;;6.45;;
44328;SDS011;30039;51.462;6.892;2023-12-04T00:46:02;13.32;;;7.15;;
44328;SDS011;30039;51.462;6.892;2023-12-04T00:48:48;12.57;;;6.20;;
44328;SDS011;30039;51.462;6.892;2023-12-04T00:51:37;12.95;;;6.35;;
44328;SDS011;30039;51.462;6.892;2023-12-04T00:54:23;11.85;;;6.03;;
44328;SDS011;30039;51.462;6.892;2023-12-04T00:57:08;11.38;;;6.22;;
44328;SDS011;30039;51.462;6.892;2023-12-04T00:59:54;13.88;;;7.15;;
44328;SDS011;30039;51.462;6.892;2023-12-04T01:02:39;13.80;;;7.00;;
44328;SDS011;30039;51.462;6.892;2023-12-04T01:05:25;11.43;;;6.22;;
44328;SDS011;30039;51.462;6.892;2023-12-04T01:08:11;12.15;;;6.45;;
44328;SDS011;30039;51.462;6.892;2023-12-04T01:10:56;11.27;;;6.07;;
44328;SDS011;30039;51.462;6.892;2023-12-04T01:13:42;11.05;;;5.95;;
44328;SDS011;30039;51.462;6.892;2023-12-04T01:16:28;12.18;;;6.05;;
44328;SDS011;30039;51.462;6.892;2023-12-04T01:19:14;10.82;;;5.50;;
44328;SDS011;30039;51.462;6.892;2023-12-04T01:21:59;13.20;;;6.53;;
44328;SDS011;30039;51.462;6.892;2023-12-04T01:24:45;11.70;;;6.53;;
44328;SDS011;30039;51.462;6.892;2023-12-04T01:27:30;12.75;;;6.65;;
44328;SDS011;30039;51.462;6.892;2023-12-04T01:30:16;11.98;;;6.20;;
44328;SDS011;30039;51.462;6.892;2023-12-04T01:33:02;11.75;;;6.07;;
44328;SDS011;30039;51.462;6.892;2023-12-04T01:35:47;12.32;;;6.03;;
44328;SDS011;30039;51.462;6.892;2023-12-04T01:38:33;10.18;;;5.25;;
44328;SDS011;30039;51.462;6.892;2023-12-04T01:41:18;9.18;;;4.80;;
44328;SDS011;30039;51.462;6.892;2023-12-04T01:44:04;11.68;;;5.85;;
44328;SDS011;30039;51.462;6.892;2023-12-04T01:46:49;12.55;;;5.78;;
44328;SDS011;30039;51.462;6.892;2023-12-04T01:49:35;11.90;;;6.10;;
44328;SDS011;30039;51.462;6.892;2023-12-04T01:52:21;10.38;;;5.40;;
44328;SDS011;30039;51.462;6.892;2023-12-04T01:55:07;11.32;;;5.22;;
44328;SDS011;30039;51.462;6.892;2023-12-04T01:57:54;8.80;;;5.07;;
44328;SDS011;30039;51.462;6.892;2023-12-04T02:00:41;12.02;;;6.07;;
44328;SDS011;30039;51.462;6.892;2023-12-04T02:03:27;10.45;;;5.85;;
44328;SDS011;30039;51.462;6.892;2023-12-04T02:06:13;10.35;;;5.40;;
44328;SDS011;30039;51.462;6.892;2023-12-04T02:08:59;8.73;;;4.15;;
44328;SDS011;30039;51.462;6.892;2023-12-04T02:11:44;9.77;;;5.18;;
44328;SDS011;30039;51.462;6.892;2023-12-04T02:14:30;13.80;;;5.78;;
44328;SDS011;30039;51.462;6.892;2023-12-04T02:17:15;9.98;;;4.88;;
44328;SDS011;30039;51.462;6.892;2023-12-04T02:20:01;9.73;;;5.45;;
44328;SDS011;30039;51.462;6.892;2023-12-04T02:22:47;11.05;;;5.88;;
44328;SDS011;30039;51.462;6.892;2023-12-04T02:25:32;9.48;;;5.47;;
44328;SDS011;30039;51.462;6.892;2023-12-04T02:28:18;8.63;;;4.65;;
44328;SDS011;30039;51.462;6.892;2023-12-04T02:31:04;9.45;;;5.00;;
44328;SDS011;30039;51.462;6.892;2023-12-04T02:33:55;9.23;;;5.38;;
44328;SDS011;30039;51.462;6.892;2023-12-04T02:36:41;9.85;;;5.10;;
44328;SDS011;30039;51.462;6.892;2023-12-04T02:39:27;11.77;;;5.65;;
44328;SDS011;30039;51.462;6.892;2023-12-04T02:42:13;10.23;;;5.10;;
44328;SDS011;30039;51.462;6.892;2023-12-04T02:44:59;11.05;;;5.13;;
44328;SDS011;30039;51.462;6.892;2023-12-04T02:47:44;9.88;;;5.10;;
44328;SDS011;30039;51.462;6.892;2023-12-04T02:50:30;9.95;;;5.05;;
44328;SDS011;30039;51.462;6.892;2023-12-04T02:53:15;9.80;;;5.20;;
44328;SDS011;30039;51.462;6.892;2023-12-04T02:56:01;9.85;;;5.03;;
44328;SDS011;30039;51.462;6.892;2023-12-04T02:58:47;10.25;;;5.75;;
44328;SDS011;30039;51.462;6.892;2023-12-04T03:01:32;9.48;;;5.28;;
44328;SDS011;30039;51.462;6.892;2023-12-04T03:04:21;8.50;;;4.53;;
44328;SDS011;30039;51.462;6.892;2023-12-04T03:07:06;6.95;;;3.05;;
44328;SDS011;30039;51.462;6.892;2023-12-04T03:09:52;8.95;;;4.38;;
44328;SDS011;30039;51.462;6.892;2023-12-04T03:12:37;7.90;;;4.82;;
44328;SDS011;30039;51.462;6.892;2023-12-04T03:15:23;8.98;;;4.47;;
44328;SDS011;30039;51.462;6.892;2023-12-04T03:18:08;9.95;;;5.20;;
44328;SDS011;30039;51.462;6.892;2023-12-04T03:20:54;9.07;;;4.78;;
44328;SDS011;30039;51.462;6.892;2023-12-04T03:23:40;12.48;;;5.55;;
44328;SDS011;30039;51.462;6.892;2023-12-04T03:26:25;11.32;;;5.13;;
44328;SDS011;30039;51.462;6.892;2023-12-04T03:29:11;11.23;;;5.50;;
44328;SDS011;30039;51.462;6.892;2023-12-04T03:31:56;8.77;;;4.60;;
44328;SDS011;30039;51.462;6.892;2023-12-04T03:34:42;9.85;;;4.88;;
44328;SDS011;30039;51.462;6.892;2023-12-04T03:37:27;9.05;;;4.22;;
44328;SDS011;30039;51.462;6.892;2023-12-04T03:40:13;7.10;;;4.10;;
44328;SDS011;30039;51.462;6.892;2023-12-04T03:42:59;8.35;;;4.22;;
44328;SDS011;30039;51.462;6.892;2023-12-04T03:45:44;6.68;;;3.33;;
44328;SDS011;30039;51.462;6.892;2023-12-04T03:48:30;6.93;;;3.75;;
44328;SDS011;30039;51.462;6.892;2023-12-04T03:51:15;3.90;;;2.00;;
44328;SDS011;30039;51.462;6.892;2023-12-04T03:54:01;7.68;;;4.32;;
44328;SDS011;30039;51.462;6.892;2023-12-04T03:56:47;8.77;;;4.32;;
44328;SDS011;30039;51.462;6.892;2023-12-04T03:59:32;6.80;;;3.97;;
44328;SDS011;30039;51.462;6.892;2023-12-04T04:02:18;8.40;;;4.32;;
44328;SDS011;30039;51.462;6.892;2023-12-04T04:05:03;7.75;;;4.60;;
44328;SDS011;30039;51.462;6.892;2023-12-04T04:07:49;11.43;;;2.95;;
44328;SDS011;30039;51.462;6.892;2023-12-04T04:10:35;10.20;;;4.15;;
44328;SDS011;30039;51.462;6.892;2023-12-04T04:13:20;8.10;;;3.70;;
44328;SDS011;30039;51.462;6.892;2023-12-04T04:16:06;6.32;;;3.80;;
44328;SDS011;30039;51.462;6.892;2023-12-04T04:18:52;5.43;;;2.97;;
44328;SDS011;30039;51.462;6.892;2023-12-04T04:21:40;7.88;;;3.00;;
44328;SDS011;30039;51.462;6.892;2023-12-04T04:24:26;7.75;;;3.47;;
44328;SDS011;30039;51.462;6.892;2023-12-04T04:27:11;6.05;;;3.35;;
44328;SDS011;30039;51.462;6.892;2023-12-04T04:29:57;6.72;;;3.83;;
44328;SDS011;30039;51.462;6.892;2023-12-04T04:32:42;6.72;;;4.25;;
44328;SDS011;30039;51.462;6.892;2023-12-04T04:35:28;6.90;;;3.80;;
44328;SDS011;30039;51.462;6.892;2023-12-04T04:38:14;7.03;;;3.50;;
44328;SDS011;30039;51.462;6.892;2023-12-04T04:40:59;6.40;;;3.55;;
44328;SDS011;30039;51.462;6.892;2023-12-04T04:43:45;7.63;;;3.55;;
44328;SDS011;30039;51.462;6.892;2023-12-04T04:46:30;6.35;;;3.17;;
44328;SDS011;30039;51.462;6.892;2023-12-04T04:49:16;5.93;;;3.50;;
44328;SDS011;30039;51.462;6.892;2023-12-04T04:52:01;5.55;;;2.60;;
44328;SDS011;30039;51.462;6.892;2023-12-04T04:54:47;5.93;;;3.38;;
44328;SDS011;30039;51.462;6.892;2023-12-04T04:57:33;4.80;;;2.60;;
44328;SDS011;30039;51.462;6.892;2023-12-04T05:00:18;5.90;;;3.10;;
44328;SDS011;30039;51.462;6.892;2023-12-04T05:03:05;5.43;;;2.75;;
44328;SDS011;30039;51.462;6.892;2023-12-04T05:05:50;7.57;;;3.58;;
44328;SDS011;30039;51.462;6.892;2023-12-04T05:08:36;8.02;;;3.83;;
44328;SDS011;30039;51.462;6.892;2023-12-04T05:11:21;7.00;;;3.40;;
44328;SDS011;30039;51.462;6.892;2023-12-04T05:14:07;5.30;;;2.70;;
44328;SDS011;30039;51.462;6.892;2023-12-04T05:16:52;6.35;;;3.10;;
44328;SDS011;30039;51.462;6.892;2023-12-04T05:19:38;7.07;;;3.08;;
44328;SDS011;30039;51.462;6.892;2023-12-04T05:22:24;5.53;;;2.92;;
44328;SDS011;30039;51.462;6.892;2023-12-04T05:25:09;6.93;;;3.08;;
44328;SDS011;30039;51.462;6.892;2023-12-04T05:27:55;4.13;;;2.75;;
44328;SDS011;30039;51.462;6.892;2023-12-04T05:30:40;6.63;;;3.25;;
44328;SDS011;30039;51.462;6.892;2023-12-04T05:33:26;5.95;;;3.60;;
44328;SDS011;30039;51.462;6.892;2023-12-04T05:36:12;4.90;;;2.67;;
44328;SDS011;30039;51.462;6.892;2023-12-04T05:38:58;6.85;;;4.03;;
44328;SDS011;30039;51.462;6.892;2023-12-04T05:41:43;6.72;;;3.22;;
44328;SDS011;30039;51.462;6.892;2023-12-04T05:44:30;6.63;;;3.72;;
44328;SDS011;30039;51.462;6.892;2023-12-04T05:47:15;8.52;;;4.70;;
44328;SDS011;30039;51.462;6.892;2023-12-04T05:50:01;7.65;;;3.92;;
44328;SDS011;30039;51.462;6.892;2023-12-04T05:52:46;6.03;;;3.55;;
44328;SDS011;30039;51.462;6.892;2023-12-04T05:55:32;11.18;;;4.78;;
44328;SDS011;30039;51.462;6.892;2023-12-04T05:58:18;8.88;;;4.10;;
44328;SDS011;30039;51.462;6.892;2023-12-04T06:01:03;11.63;;;4.45;;
44328;SDS011;30039;51.462;6.892;2023-12-04T06:03:49;5.82;;;3.65;;
44328;SDS011;30039;51.462;6.892;2023-12-04T06:06:35;6.32;;;3.75;;
44328;SDS011;30039;51.462;6.892;2023-12-04T06:09:20;6.70;;;4.07;;
44328;SDS011;30039;51.462;6.892;2023-12-04T06:12:06;6.75;;;3.90;;
44328;SDS011;30039;51.462;6.892;2023-12-04T06:14:54;7.03;;;4.18;;
44328;SDS011;30039;51.462;6.892;2023-12-04T06:17:39;7.82;;;4.50;;
44328;SDS011;30039;51.462;6.892;2023-12-04T06:20:25;5.72;;;3.10;;
44328;SDS011;30039;51.462;6.892;2023-12-04T06:23:11;7.93;;;4.40;;
44328;SDS011;30039;51.462;6.892;2023-12-04T06:25:56;6.82;;;3.85;;
44328;SDS011;30039;51.462;6.892;2023-12-04T06:28:43;6.45;;;3.15;;
44328;SDS011;30039;51.462;6.892;2023-12-04T06:31:28;9.50;;;5.15;;
44328;SDS011;30039;51.462;6.892;2023-12-04T06:34:14;7.82;;;4.18;;
44328;SDS011;30039;51.462;6.892;2023-12-04T06:37:01;6.75;;;3.42;;
44328;SDS011;30039;51.462;6.892;2023-12-04T06:39:47;11.43;;;5.28;;
44328;SDS011;30039;51.462;6.892;2023-12-04T06:42:34;8.57;;;4.60;;
44328;SDS011;30039;51.462;6.892;2023-12-04T06:45:20;7.53;;;4.53;;
44328;SDS011;30039;51.462;6.892;2023-12-04T06:48:06;10.27;;;5.38;;
44328;SDS011;30039;51.462;6.892;2023-12-04T06:50:52;5.22;;;3.13;;
44328;SDS011;30039;51.462;6.892;2023-12-04T06:53:37;6.40;;;3.42;;
44328;SDS011;30039;51.462;6.892;2023-12-04T06:56:23;9.00;;;5.10;;
44328;SDS011;30039;51.462;6.892;2023-12-04T06:59:08;10.15;;;5.70;;
44328;SDS011;30039;51.462;6.892;2023-12-04T07:01:54;8.45;;;4.22;;
44328;SDS011;30039;51.462;6.892;2023-12-04T07:04:40;7.55;;;4.65;;
44328;SDS011;30039;51.462;6.892;2023-12-04T07:07:25;9.65;;;4.97;;
44328;SDS011;30039;51.462;6.892;2023-12-04T07:10:11;8.05;;;4.80;;
44328;SDS011;30039;51.462;6.892;2023-12-04T07:13:00;8.57;;;3.70;;
44328;SDS011;30039;51.462;6.892;2023-12-04T07:15:45;8.43;;;4.68;;
44328;SDS011;30039;51.462;6.892;2023-12-04T07:18:31;10.43;;;5.10;;
44328;SDS011;30039;51.462;6.892;2023-12-04T07:21:17;7.28;;;4.55;;
44328;SDS011;30039;51.462;6.892;2023-12-04T07:24:03;9.70;;;5.18;;
44328;SDS011;30039;51.462;6.892;2023-12-04T07:26:48;11.80;;;4.40;;
44328;SDS011;30039;51.462;6.892;2023-12-04T07:29:34;8.38;;;4.85;;
44328;SDS011;30039;51.462;6.892;2023-12-04T07:32:20;10.57;;;4.90;;
44328;SDS011;30039;51.462;6.892;2023-12-04T07:35:05;7.55;;;4.07;;
44328;SDS011;30039;51.462;6.892;2023-12-04T07:37:51;11.05;;;5.05;;
44328;SDS011;30039;51.462;6.892;2023-12-04T07:40:38;7.93;;;4.40;;
44328;SDS011;30039;51.462;6.892;2023-12-04T07:43:23;9.20;;;4.05;;
44328;SDS011;30039;51.462;6.892;2023-12-04T07:46:09;6.53;;;4.13;;
44328;SDS011;30039;51.462;6.892;2023-12-04T07:48:55;8.23;;;4.28;;
44328;SDS011;30039;51.462;6.892;2023-12-04T07:51:40;8.32;;;4.63;;
44328;SDS011;30039;51.462;6.892;2023-12-04T07:54:26;8.10;;;4.03;;
44328;SDS011;30039;51.462;6.892;2023-12-04T07:57:12;7.47;;;4.28;;
44328;SDS011;30039;51.462;6.892;2023-12-04T07:59:57;7.82;;;4.22;;
44328;SDS011;30039;51.462;6.892;2023-12-04T08:02:43;7.50;;;4.38;;
44328;SDS011;30039;51.462;6.892;2023-12-04T08:05:30;7.80;;;4.22;;
44328;SDS011;30039;51.462;6.892;2023-12-04T08:08:17;7.28;;;4.10;;
44328;SDS011;30039;51.462;6.892;2023-12-04T08:11:02;8.35;;;4.60;;
44328;SDS011;30039;51.462;6.892;2023-12-04T08:13:48;11.20;;;4.80;;
44328;SDS011;30039;51.462;6.892;2023-12-04T08:16:34;6.95;;;4.00;;
44328;SDS011;30039;51.462;6.892;2023-12-04T08:19:19;7.07;;;3.60;;
44328;SDS011;30039;51.462;6.892;2023-12-04T08:22:05;8.60;;;4.47;;
44328;SDS011;30039;51.462;6.892;2023-12-04T08:24:50;6.68;;;4.22;;
44328;SDS011;30039;51.462;6.892;2023-12-04T08:27:36;4.57;;;2.35;;
44328;SDS011;30039;51.462;6.892;2023-12-04T08:30:22;7.75;;;3.70;;
44328;SDS011;30039;51.462;6.892;2023-12-04T08:33:07;6.32;;;3.30;;
44328;SDS011;30039;51.462;6.892;2023-12-04T08:35:53;5.97;;;3.47;;
44328;SDS011;30039;51.462;6.892;2023-12-04T08:38:38;7.60;;;4.00;;
44328;SDS011;30039;51.462;6.892;2023-12-04T08:41:24;6.80;;;3.35;;
44328;SDS011;30039;51.462;6.892;2023-12-04T08:44:10;6.93;;;3.20;;
44328;SDS011;30039;51.462;6.892;2023-12-04T08:46:56;7.13;;;3.85;;
44328;SDS011;30039;51.462;6.892;2023-12-04T08:49:43;6.78;;;3.50;;
44328;SDS011;30039;51.462;6.892;2023-12-04T08:52:28;5.82;;;3.22;;
44328;SDS011;30039;51.462;6.892;2023-12-04T08:55:14;5.72;;;3.42;;
44328;SDS011;30039;51.462;6.892;2023-12-04T08:58:01;7.43;;;3.17;;
44328;SDS011;30039;51.462;6.892;2023-12-04T09:00:46;7.85;;;3.63;;
44328;SDS011;30039;51.462;6.892;2023-12-04T09:03:32;6.65;;;3.42;;
44328;SDS011;30039;51.462;6.892;2023-12-04T09:06:18;4.95;;;2.83;;
44328;SDS011;30039;51.462;6.892;2023-12-04T09:09:03;5.50;;;3.10;;
44328;SDS011;30039;51.462;6.892;2023-12-04T09:11:49;5.53;;;3.22;;
44328;SDS011;30039;51.462;6.892;2023-12-04T09:14:34;8.05;;;2.88;;
44328;SDS011;30039;51.462;6.892;2023-12-04T09:17:20;5.65;;;3.13;;
44328;SDS011;30039;51.462;6.892;2023-12-04T09:20:06;5.05;;;3.00;;
44328;SDS011;30039;51.462;6.892;2023-12-04T09:22:51;5.40;;;3.10;;
44328;SDS011;30039;51.462;6.892;2023-12-04T09:25:37;4.78;;;2.90;;
44328;SDS011;30039;51.462;6.892;2023-12-04T09:28:22;6.85;;;2.60;;
44328;SDS011;30039;51.462;6.892;2023-12-04T09:31:08;5.30;;;3.10;;
44328;SDS011;30039;51.462;6.892;2023-12-04T09:33:54;5.32;;;3.10;;
44328;SDS011;30039;51.462;6.892;2023-12-04T09:36:39;6.90;;;3.25;;
44328;SDS011;30039;51.462;6.892;2023-12-04T09:39:25;6.07;;;3.33;;
44328;SDS011;30039;51.462;6.892;2023-12-04T09:42:12;6.97;;;3.58;;
44328;SDS011;30039;51.462;6.892;2023-12-04T09:44:59;5.78;;;3.55;;
44328;SDS011;30039;51.462;6.892;2023-12-04T09:47:45;4.65;;;2.22;;
44328;SDS011;30039;51.462;6.892;2023-12-04T09:50:33;7.35;;;3.22;;
44328;SDS011;30039;51.462;6.892;2023-12-04T09:53:18;5.45;;;3.17;;
44328;SDS011;30039;51.462;6.892;2023-12-04T09:56:06;6.60;;;3.45;;
44328;SDS011;30039;51.462;6.892;2023-12-04T09:58:53;6.50;;;2.80;;
44328;SDS011;30039;51.462;6.892;2023-12-04T10:01:41;5.40;;;2.80;;
44328;SDS011;30039;51.462;6.892;2023-12-04T10:04:28;4.40;;;2.30;;
44328;SDS011;30039;51.462;6.892;2023-12-04T10:07:14;4.55;;;2.20;;
44328;SDS011;30039;51.462;6.892;2023-12-04T10:09:59;7.45;;;2.95;;
44328;SDS011;30039;51.462;6.892;2023-12-04T10:12:45;4.40;;;2.60;;
44328;SDS011;30039;51.462;6.892;2023-12-04T10:15:31;5.00;;;2.85;;
44328;SDS011;30039;51.462;6.892;2023-12-04T10:18:26;5.22;;;2.65;;
44328;SDS011;30039;51.462;6.892;2023-12-04T10:21:12;5.55;;;2.88;;
44328;SDS011;30039;51.462;6.892;2023-12-04T10:23:57;9.20;;;3.17;;
44328;SDS011;30039;51.462;6.892;2023-12-04T10:26:49;5.95;;;3.42;;
44328;SDS011;30039;51.462;6.892;2023-12-04T10:29:43;6.03;;;3.13;;
44328;SDS011;30039;51.462;6.892;2023-12-04T10:32:31;5.78;;;2.55;;
44328;SDS011;30039;51.462;6.892;2023-12-04T10:35:16;6.00;;;3.60;;
44328;SDS011;30039;51.462;6.892;2023-12-04T10:38:02;6.70;;;3.17;;
44328;SDS011;30039;51.462;6.892;2023-12-04T10:40:48;5.03;;;3.10;;
44328;SDS011;30039;51.462;6.892;2023-12-04T10:43:34;11.02;;;3.80;;
44328;SDS011;30039;51.462;6.892;2023-12-04T10:46:20;6.65;;;3.38;;
44328;SDS011;30039;51.462;6.892;2023-12-04T10:49:06;7.55;;;3.38;;
44328;SDS011;30039;51.462;6.892;2023-12-04T10:51:53;7.13;;;3.78;;
44328;SDS011;30039;51.462;6.892;2023-12-04T10:54:40;4.00;;;2.33;;
44328;SDS011;30039;51.462;6.892;2023-12-04T10:57:27;8.02;;;3.92;;
44328;SDS011;30039;51.462;6.892;2023-12-04T11:00:13;7.50;;;3.80;;
44328;SDS011;30039;51.462;6.892;2023-12-04T11:03:07;8.02;;;3.97;;
44328;SDS011;30039;51.462;6.892;2023-12-04T11:05:59;5.80;;;2.88;;
44328;SDS011;30039;51.462;6.892;2023-12-04T11:08:46;5.45;;;3.28;;
44328;SDS011;30039;51.462;6.892;2023-12-04T11:11:37;6.70;;;2.85;;
44328;SDS011;30039;51.462;6.892;2023-12-04T11:14:26;6.80;;;3.80;;
44328;SDS011;30039;51.462;6.892;2023-12-04T11:17:15;6.07;;;3.35;;
44328;SDS011;30039;51.462;6.892;2023-12-04T11:20:07;6.47;;;3.75;;
44328;SDS011;30039;51.462;6.892;2023-12-04T11:22:56;9.02;;;3.60;;
44328;SDS011;30039;51.462;6.892;2023-12-04T11:25:42;12.05;;;4.70;;
44328;SDS011;30039;51.462;6.892;2023-12-04T11:28:28;6.20;;;3.63;;
44328;SDS011;30039;51.462;6.892;2023-12-04T11:31:14;7.22;;;4.13;;
44328;SDS011;30039;51.462;6.892;2023-12-04T11:34:03;9.57;;;4.60;;
44328;SDS011;30039;51.462;6.892;2023-12-04T11:36:49;7.00;;;4.38;;
44328;SDS011;30039;51.462;6.892;2023-12-04T11:39:35;7.18;;;3.90;;
44328;SDS011;30039;51.462;6.892;2023-12-04T11:42:24;8.20;;;4.40;;
44328;SDS011;30039;51.462;6.892;2023-12-04T11:45:10;8.82;;;4.70;;
44328;SDS011;30039;51.462;6.892;2023-12-04T11:48:03;7.15;;;2.83;;
44328;SDS011;30039;51.462;6.892;2023-12-04T11:50:49;7.55;;;3.83;;
44328;SDS011;30039;51.462;6.892;2023-12-04T11:53:39;8.45;;;4.25;;
44328;SDS011;30039;51.462;6.892;2023-12-04T11:56:28;5.43;;;3.50;;
44328;SDS011;30039;51.462;6.892;2023-12-04T11:59:14;7.72;;;4.35;;
44328;SDS011;30039;51.462;6.892;2023-12-04T12:01:59;8.48;;;5.03;;
44328;SDS011;30039;51.462;6.892;2023-12-04T12:04:45;5.03;;;3.15;;
44328;SDS011;30039;51.462;6.892;2023-12-04T12:07:32;7.85;;;4.22;;
44328;SDS011;30039;51.462;6.892;2023-12-04T12:10:18;9.95;;;4.00;;
44328;SDS011;30039;51.462;6.892;2023-12-04T12:13:03;6.70;;;4.22;;
44328;SDS011;30039;51.462;6.892;2023-12-04T12:15:50;9.48;;;5.15;;
44328;SDS011;30039;51.462;6.892;2023-12-04T12:18:36;7.80;;;4.20;;
44328;SDS011;30039;51.462;6.892;2023-12-04T12:21:22;8.88;;;4.80;;
44328;SDS011;30039;51.462;6.892;2023-12-04T12:24:07;9.73;;;4.90;;
44328;SDS011;30039;51.462;6.892;2023-12-04T12:26:53;7.93;;;4.40;;
44328;SDS011;30039;51.462;6.892;2023-12-04T12:29:39;8.23;;;4.43;;
44328;SDS011;30039;51.462;6.892;2023-12-04T12:32:25;10.32;;;3.80;;
44328;SDS011;30039;51.462;6.892;2023-12-04T12:35:11;7.70;;;4.07;;
44328;SDS011;30039;51.462;6.892;2023-12-04T12:37:57;9.43;;;4.03;;
44328;SDS011;30039;51.462;6.892;2023-12-04T12:40:42;7.65;;;4.60;;
44328;SDS011;30039;51.462;6.892;2023-12-04T12:43:28;7.80;;;4.07;;
44328;SDS011;30039;51.462;6.892;2023-12-04T12:46:14;8.85;;;4.93;;
44328;SDS011;30039;51.462;6.892;2023-12-04T12:48:59;9.32;;;4.90;;
44328;SDS011;30039;51.462;6.892;2023-12-04T12:51:45;6.50;;;3.58;;
44328;SDS011;30039;51.462;6.892;2023-12-04T12:54:31;11.25;;;4.70;;
44328;SDS011;30039;51.462;6.892;2023-12-04T12:57:18;7.60;;;4.80;;
44328;SDS011;30039;51.462;6.892;2023-12-04T13:00:04;9.07;;;4.03;;
44328;SDS011;30039;51.462;6.892;2023-12-04T13:02:53;10.20;;;5.30;;
44328;SDS011;30039;51.462;6.892;2023-12-04T13:05:39;8.35;;;3.90;;
44328;SDS011;30039;51.462;6.892;2023-12-04T13:08:25;7.55;;;4.28;;
44328;SDS011;30039;51.462;6.892;2023-12-04T13:11:10;8.98;;;5.13;;
44328;SDS011;30039;51.462;6.892;2023-12-04T13:13:56;7.55;;;3.95;;
44328;SDS011;30039;51.462;6.892;2023-12-04T13:16:42;8.00;;;4.15;;
44328;SDS011;30039;51.462;6.892;2023-12-04T13:19:28;8.18;;;4.43;;
44328;SDS011;30039;51.462;6.892;2023-12-04T13:22:16;6.68;;;3.75;;
44328;SDS011;30039;51.462;6.892;2023-12-04T13:25:02;8.52;;;4.68;;
44328;SDS011;30039;51.462;6.892;2023-12-04T13:27:53;6.03;;;3.00;;
44328;SDS011;30039;51.462;6.892;2023-12-04T13:30:38;7.38;;;4.53;;
44328;SDS011;30039;51.462;6.892;2023-12-04T13:33:24;8.95;;;5.00;;
44328;SDS011;30039;51.462;6.892;2023-12-04T13:36:11;7.97;;;3.92;;
44328;SDS011;30039;51.462;6.892;2023-12-04T13:38:57;7.45;;;3.90;;
44328;SDS011;30039;51.462;6.892;2023-12-04T13:41:43;6.05;;;3.53;;
44328;SDS011;30039;51.462;6.892;2023-12-04T13:44:47;6.90;;;4.05;;
44328;SDS011;30039;51.462;6.892;2023-12-04T13:47:33;8.23;;;3.53;;
44328;SDS011;30039;51.462;6.892;2023-12-04T13:50:19;8.68;;;4.63;;
44328;SDS011;30039;51.462;6.892;2023-12-04T13:53:06;8.15;;;4.35;;
44328;SDS011;30039;51.462;6.892;2023-12-04T13:55:53;8.55;;;3.67;;
44328;SDS011;30039;51.462;6.892;2023-12-04T13:58:39;7.35;;;3.88;;
44328;SDS011;30039;51.462;6.892;2023-12-04T14:01:29;5.13;;;3.13;;
44328;SDS011;30039;51.462;6.892;2023-12-04T14:04:18;7.88;;;4.82;;
44328;SDS011;30039;51.462;6.892;2023-12-04T14:07:03;7.25;;;4.00;;
44328;SDS011;30039;51.462;6.892;2023-12-04T14:09:49;6.60;;;3.78;;
44328;SDS011;30039;51.462;6.892;2023-12-04T14:12:35;7.15;;;3.55;;
44328;SDS011;30039;51.462;6.892;2023-12-04T14:15:22;6.03;;;3.42;;
44328;SDS011;30039;51.462;6.892;2023-12-04T14:18:08;7.20;;;3.95;;
44328;SDS011;30039;51.462;6.892;2023-12-04T14:20:53;8.05;;;4.43;;
44328;SDS011;30039;51.462;6.892;2023-12-04T14:23:39;7.15;;;4.15;;
44328;SDS011;30039;51.462;6.892;2023-12-04T14:26:24;6.72;;;4.15;;
44328;SDS011;30039;51.462;6.892;2023-12-04T14:29:10;7.25;;;3.88;;
44328;SDS011;30039;51.462;6.892;2023-12-04T14:31:58;6.28;;;4.10;;
44328;SDS011;30039;51.462;6.892;2023-12-04T14:34:44;4.97;;;2.88;;
44328;SDS011;30039;51.462;6.892;2023-12-04T14:37:29;6.15;;;3.53;;
44328;SDS011;30039;51.462;6.892;2023-12-04T14:40:15;5.07;;;2.50;;
44328;SDS011;30039;51.462;6.892;2023-12-04T14:43:01;5.13;;;3.38;;
44328;SDS011;30039;51.462;6.892;2023-12-04T14:45:46;4.93;;;3.10;;
44328;SDS011;30039;51.462;6.892;2023-12-04T14:48:33;5.28;;;3.03;;
44328;SDS011;30039;51.462;6.892;2023-12-04T14:51:18;5.30;;;2.85;;
44328;SDS011;30039;51.462;6.892;2023-12-04T14:54:12;2.95;;;1.92;;
44328;SDS011;30039;51.462;6.892;2023-12-04T14:57:20;5.75;;;2.72;;
44328;SDS011;30039;51.462;6.892;2023-12-04T15:00:24;5.68;;;3.05;;
44328;SDS011;30039;51.462;6.892;2023-12-04T15:03:39;4.00;;;2.70;;
44328;SDS011;30039;51.462;6.892;2023-12-04T15:06:53;6.23;;;3.37;;
44328;SDS011;30039;51.462;6.892;2023-12-04T15:09:57;6.38;;;3.05;;
44328;SDS011;30039;51.462;6.892;2023-12-04T15:13:01;4.28;;;2.53;;
44328;SDS011;30039;51.462;6.892;2023-12-04T15:15:50;5.00;;;3.17;;
44328;SDS011;30039;51.462;6.892;2023-12-04T15:18:54;6.07;;;2.53;;
44328;SDS011;30039;51.462;6.892;2023-12-04T15:21:58;4.43;;;2.55;;
44328;SDS011;30039;51.462;6.892;2023-12-04T15:24:43;5.13;;;3.05;;
44328;SDS011;30039;51.462;6.892;2023-12-04T15:27:29;5.32;;;3.03;;
44328;SDS011;30039;51.462;6.892;2023-12-04T15:30:15;5.32;;;2.92;;
44328;SDS011;30039;51.462;6.892;2023-12-04T15:33:01;5.72;;;2.88;;
44328;SDS011;30039;51.462;6.892;2023-12-04T15:35:47;5.25;;;3.20;;
44328;SDS011;30039;51.462;6.892;2023-12-04T15:38:32;6.20;;;2.78;;
44328;SDS011;30039;51.462;6.892;2023-12-04T15:41:18;3.67;;;2.20;;
44328;SDS011;30039;51.462;6.892;2023-12-04T15:44:05;5.35;;;3.08;;
44328;SDS011;30039;51.462;6.892;2023-12-04T15:46:51;5.10;;;3.35;;
44328;SDS011;30039;51.462;6.892;2023-12-04T15:49:37;7.35;;;3.70;;
44328;SDS011;30039;51.462;6.892;2023-12-04T15:52:22;5.57;;;3.47;;
44328;SDS011;30039;51.462;6.892;2023-12-04T15:55:11;5.03;;;3.03;;
44328;SDS011;30039;51.462;6.892;2023-12-04T15:57:57;6.93;;;3.65;;
44328;SDS011;30039;51.462;6.892;2023-12-04T16:00:43;6.13;;;3.35;;
44328;SDS011;30039;51.462;6.892;2023-12-04T16:03:29;4.43;;;2.58;;
44328;SDS011;30039;51.462;6.892;2023-12-04T16:06:15;6.05;;;3.67;;
44328;SDS011;30039;51.462;6.892;2023-12-04T16:09:01;4.95;;;3.70;;
44328;SDS011;30039;51.462;6.892;2023-12-04T16:11:46;9.40;;;4.65;;
44328;SDS011;30039;51.462;6.892;2023-12-04T16:14:32;5.00;;;3.20;;
44328;SDS011;30039;51.462;6.892;2023-12-04T16:17:17;7.43;;;4.18;;
44328;SDS011;30039;51.462;6.892;2023-12-04T16:20:03;4.38;;;2.63;;
44328;SDS011;30039;51.462;6.892;2023-12-04T16:22:51;6.25;;;3.60;;
44328;SDS011;30039;51.462;6.892;2023-12-04T16:25:36;5.55;;;3.55;;
44328;SDS011;30039;51.462;6.892;2023-12-04T16:28:22;5.13;;;3.10;;
44328;SDS011;30039;51.462;6.892;2023-12-04T16:31:08;6.40;;;3.83;;
44328;SDS011;30039;51.462;6.892;2023-12-04T16:33:54;6.65;;;3.30;;
44328;SDS011;30039;51.462;6.892;2023-12-04T16:36:39;6.85;;;3.70;;
44328;SDS011;30039;51.462;6.892;2023-12-04T16:39:25;7.60;;;4.18;;
44328;SDS011;30039;51.462;6.892;2023-12-04T16:42:12;5.80;;;3.42;;